Time;durP1;ratioP1;P1;durP2;ratioP2;P2;SDS_P1;SDS_P2;PMS_P1;PMS_P2;Temp;Humidity;BMP_temperature;BMP_pressure;BME280_temperature;BME280_humidity;BME280_pressure;Samples;Min_cycle;Max_cycle;Signal;HPM_P1;HPM_P2
2021/11/17 02:28:21;;;;;;;48.13;22.13;;;;;;;-4.17;68.85;100932.53;1772852;78;21123;-58
2021/11/17 02:30:59;;;;;;;46.03;21.70;;;;;;;-4.19;68.83;100927.22;1774271;78;21060;-59
2021/11/17 02:33:31;;;;;;;41.70;21.23;;;;;;;-4.21;68.72;100927.17;1763828;78;21188;-58
2021/11/17 02:36:19;;;;;;;54.03;22.40;;;;;;;-4.22;68.64;100923.17;1774041;78;21033;-58
2021/11/17 02:39:26;;;;;;;51.73;24.03;;;;;;;-4.24;68.60;100922.23;1771306;78;21301;-58
2021/11/17 02:42:04;;;;;;;50.57;23.27;;;;;;;-4.26;68.54;100922.63;1775200;78;21090;-58
2021/11/17 02:45:11;;;;;;;53.43;23.93;;;;;;;-4.26;68.43;100920.00;1771926;78;21093;-58
2021/11/17 02:48:06;;;;;;;64.67;28.07;;;;;;;-4.29;68.49;100918.59;1750211;80;21723;-58
2021/11/17 02:50:43;;;;;;;72.25;29.52;;;;;;;-4.31;68.41;100922.90;1750137;80;21415;-59
2021/11/17 02:53:20;;;;;;;67.77;29.27;;;;;;;-4.34;68.40;100926.31;1775790;78;21565;-58
2021/11/17 02:56:31;;;;;;;58.83;26.47;;;;;;;-4.34;68.45;100925.45;1775571;78;21058;-60
2021/11/17 02:59:03;;;;;;;60.30;27.10;;;;;;;-4.36;68.48;100928.03;1756322;78;21048;-57
2021/11/17 03:01:52;;;;;;;54.43;24.80;;;;;;;-4.39;68.47;100923.98;1773688;78;21598;-57
2021/11/17 03:04:43;;;;;;;51.73;22.57;;;;;;;-4.40;68.49;100920.89;1736214;80;21576;-57
2021/11/17 03:07:36;;;;;;;46.80;23.17;;;;;;;-4.39;68.49;100929.66;1756067;79;21111;-57
2021/11/17 03:10:16;;;;;;;43.33;21.57;;;;;;;-4.43;68.51;100926.07;1752801;79;21099;-57
2021/11/17 03:13:06;;;;;;;53.23;25.87;;;;;;;-4.43;68.57;100925.18;1756929;79;21104;-56
2021/11/17 03:16:06;;;;;;;58.60;26.87;;;;;;;-4.44;68.71;100924.28;1762693;79;22383;-58
2021/11/17 03:19:06;;;;;;;82.97;35.07;;;;;;;-4.43;68.70;100919.92;1756683;79;20910;-57
2021/11/17 03:21:55;;;;;;;77.67;30.67;;;;;;;-4.44;68.69;100920.77;1625538;86;20934;-57
2021/11/17 03:24:39;;;;;;;79.80;31.97;;;;;;;-4.46;68.82;100918.50;1755148;79;21426;-57
2021/11/17 03:27:28;;;;;;;57.83;27.03;;;;;;;-4.44;68.72;100922.08;1760626;79;20973;-57
2021/11/17 03:30:24;;;;;;;48.63;23.40;;;;;;;-4.45;68.59;100922.92;1756517;79;21949;-58
2021/11/17 03:33:22;;;;;;;48.67;22.13;;;;;;;-4.46;68.62;100913.25;1755054;79;20953;-57
2021/11/17 03:36:09;;;;;;;41.70;20.93;;;;;;;-4.47;68.74;100920.66;1759083;79;20953;-57
2021/11/17 03:38:41;;;;;;;41.80;22.57;;;;;;;-4.49;68.75;100920.61;1759662;79;20926;-58
2021/11/17 03:41:38;;;;;;;44.93;21.67;;;;;;;-4.49;68.77;100914.45;1759531;79;20930;-57
2021/11/17 03:44:33;;;;;;;40.37;19.93;;;;;;;-4.49;68.68;100918.40;1711877;79;21077;-58
2021/11/17 03:47:22;;;;;;;46.03;21.53;;;;;;;-4.49;68.60;100923.23;1759463;79;21253;-57
2021/11/17 03:50:11;;;;;;;43.33;20.03;;;;;;;-4.50;68.59;100913.98;1755758;79;21602;-58
2021/11/17 03:53:11;;;;;;;43.17;21.23;;;;;;;-4.51;68.48;100920.11;1760051;79;21092;-57
2021/11/17 03:55:49;;;;;;;43.23;20.93;;;;;;;-4.55;68.37;100906.39;1753956;79;21091;-57
2021/11/17 03:58:38;;;;;;;42.40;20.37;;;;;;;-4.55;68.25;100909.02;1754503;79;21559;-56
2021/11/17 04:01:22;;;;;;;37.50;20.03;;;;;;;-4.57;68.09;100905.03;1754436;79;21069;-57
2021/11/17 04:04:16;;;;;;;38.87;19.93;;;;;;;-4.60;68.00;100905.84;1755505;79;21094;-57
2021/11/17 04:07:13;;;;;;;41.42;20.60;;;;;;;-4.62;67.92;100903.59;1726022;79;21053;-56
2021/11/17 04:10:19;;;;;;;37.47;18.93;;;;;;;-4.65;67.85;100908.73;1733999;79;21483;-56
2021/11/17 04:13:08;;;;;;;42.50;20.27;;;;;;;-4.67;67.90;100905.16;1738595;79;21416;-56
2021/11/17 04:16:13;;;;;;;48.97;22.63;;;;;;;-4.70;68.01;100895.00;1755547;79;21510;-56
2021/11/17 04:18:54;;;;;;;40.08;19.40;;;;;;;-4.71;68.08;100899.78;1753491;79;21409;-56
2021/11/17 04:21:29;;;;;;;45.80;20.57;;;;;;;-4.73;68.00;100899.73;1750956;79;22249;-57
2021/11/17 04:24:29;;;;;;;33.83;18.43;;;;;;;-4.75;68.11;100887.38;1752230;79;21096;-56
2021/11/17 04:27:13;;;;;;;37.07;18.37;;;;;;;-4.77;68.19;100887.36;1752127;79;21165;-57
2021/11/17 04:30:02;;;;;;;48.80;18.53;;;;;;;-4.76;68.37;100884.28;1760420;79;21080;-57
2021/11/17 04:32:52;;;;;;;55.57;18.70;;;;;;;-4.76;68.38;100888.22;1750710;79;21124;-56
2021/11/17 04:35:32;;;;;;;42.03;18.43;;;;;;;-4.76;68.32;100882.55;1755776;79;22471;-57
2021/11/17 04:38:13;;;;;;;42.90;17.87;;;;;;;-4.74;68.37;100889.17;1753404;79;21072;-57
2021/11/17 04:41:10;;;;;;;33.83;17.07;;;;;;;-4.74;68.42;100885.23;1694850;79;21549;-59
2021/11/17 04:44:11;;;;;;;32.10;17.07;;;;;;;-4.72;68.53;100879.61;1758140;79;21108;-59
2021/11/17 04:46:46;;;;;;;29.47;14.67;;;;;;;-4.71;68.65;100881.39;1753338;79;21380;-58
2021/11/17 04:49:39;;;;;;;33.60;16.20;;;;;;;-4.69;68.80;100883.66;1754774;79;21064;-58
2021/11/17 04:52:35;;;;;;;30.27;16.23;;;;;;;-4.69;68.97;100882.34;1756899;79;20934;-58
2021/11/17 04:55:25;;;;;;;31.23;15.13;;;;;;;-4.66;68.88;100886.35;1706906;79;21131;-59
2021/11/17 04:58:20;;;;;;;31.77;14.33;;;;;;;-4.65;68.79;100882.47;1756032;79;21064;-59
2021/11/17 05:01:31;;;;;;;31.97;15.28;;;;;;;-4.64;68.87;100880.31;1776133;78;21414;-55
2021/11/17 05:04:42;;;;;;;32.30;13.83;;;;;;;-4.62;69.00;100877.73;1746943;79;21178;-55
2021/11/17 05:07:57;;;;;;;28.67;14.90;;;;;;;-4.61;69.19;100873.84;1750348;79;21490;-57
2021/11/17 05:11:02;;;;;;;27.83;13.47;;;;;;;-4.59;69.47;100870.82;1728088;80;20969;-56
2021/11/17 05:13:43;;;;;;;35.35;14.23;;;;;;;-4.53;69.61;100871.87;1753440;80;21079;-55
2021/11/17 05:16:55;;;;;;;35.23;14.57;;;;;;;-4.48;69.58;100880.34;1741286;81;21097;-55
2021/11/17 05:19:30;;;;;;;38.70;13.13;;;;;;;-4.46;69.53;100870.78;1772544;78;21148;-55
2021/11/17 05:22:17;;;;;;;33.27;14.23;;;;;;;-4.44;69.51;100877.40;1746713;80;21816;-58
2021/11/17 05:24:54;;;;;;;30.00;14.67;;;;;;;-4.44;69.52;100874.77;1744691;80;21775;-57
2021/11/17 05:27:32;;;;;;;40.30;12.77;;;;;;;-4.42;69.53;100868.69;1780380;78;21130;-57
2021/11/17 05:30:10;;;;;;;33.90;13.73;;;;;;;-4.39;69.49;100871.84;1781058;78;21587;-56
2021/11/17 05:33:03;;;;;;;31.57;12.97;;;;;;;-4.37;69.78;100871.47;1720983;78;21056;-57
2021/11/17 05:35:59;;;;;;;33.10;13.37;;;;;;;-4.35;70.06;100869.79;1775169;78;21163;-56
2021/11/17 05:38:55;;;;;;;35.37;12.57;;;;;;;-4.31;70.15;100869.02;1775542;78;21128;-57
2021/11/17 05:41:42;;;;;;;23.87;12.60;;;;;;;-4.28;70.35;100866.48;1773870;78;21044;-56
2021/11/17 05:44:17;;;;;;;28.27;14.80;;;;;;;-4.25;70.35;100866.55;1773464;78;21100;-59
2021/11/17 05:46:49;;;;;;;31.47;15.20;;;;;;;-4.23;70.48;100867.49;1782321;78;21052;-57
2021/11/17 05:49:27;;;;;;;32.10;15.17;;;;;;;-4.19;70.56;100865.44;1780998;78;21105;-57
2021/11/17 05:52:22;;;;;;;28.20;14.23;;;;;;;-4.14;70.65;100860.30;1783166;78;20941;-57
2021/11/17 05:55:21;;;;;;;31.93;13.63;;;;;;;-4.11;70.85;100859.97;1778318;78;21647;-56
2021/11/17 05:58:16;;;;;;;24.03;12.87;;;;;;;-4.05;70.94;100857.50;1773225;78;21472;-56
2021/11/17 06:01:12;;;;;;;24.70;11.65;;;;;;;-4.00;71.08;100859.86;1782008;78;20863;-55
2021/11/17 06:03:56;;;;;;;29.87;13.17;;;;;;;-3.93;71.28;100860.91;1774538;78;21069;-56
2021/11/17 06:06:24;;;;;;;25.37;13.08;;;;;;;-3.87;71.40;100861.06;1781481;78;22172;-57
2021/11/17 06:08:50;;;;;;;19.23;10.43;;;;;;;-3.81;71.48;100850.27;1788153;78;20983;-57
2021/11/17 06:11:18;;;;;;;29.37;16.53;;;;;;;-3.72;71.69;100852.69;1780066;78;27482;-57
2021/11/17 06:13:44;;;;;;;28.70;15.17;;;;;;;-3.65;71.85;100842.35;1779803;78;20986;-57
2021/11/17 06:16:10;;;;;;;32.43;13.57;;;;;;;-3.58;72.03;100844.74;1781972;80;20949;-58
2021/11/17 06:18:37;;;;;;;36.30;18.97;;;;;;;-3.51;72.20;100838.78;1774914;80;21250;-56
2021/11/17 06:21:06;;;;;;;27.07;15.00;;;;;;;-3.45;72.19;100830.61;1781649;78;21408;-56
2021/11/17 06:23:47;;;;;;;24.60;11.77;;;;;;;-3.39;72.32;100832.91;1752336;78;20938;-56
2021/11/17 06:26:19;;;;;;;24.13;14.93;;;;;;;-3.33;72.41;100834.41;1774165;78;20867;-57
2021/11/17 06:28:55;;;;;;;24.90;12.93;;;;;;;-3.26;72.53;100829.32;1770667;78;20910;-56
2021/11/17 06:31:22;;;;;;;18.93;11.40;;;;;;;-3.17;72.59;100836.55;1775650;78;21112;-57
2021/11/17 06:33:48;;;;;;;28.50;13.30;;;;;;;-3.11;72.67;100840.22;1775251;78;20945;-56
2021/11/17 06:36:16;;;;;;;21.97;11.07;;;;;;;-3.04;72.75;100839.92;1771398;78;21031;-57
2021/11/17 06:38:46;;;;;;;20.93;13.20;;;;;;;-2.95;72.84;100836.19;1769202;78;21355;-56
2021/11/17 06:41:13;;;;;;;24.10;14.03;;;;;;;-2.88;72.83;100837.21;1774318;80;20965;-57
2021/11/17 06:43:39;;;;;;;27.80;13.83;;;;;;;-2.80;72.91;100846.19;1739978;80;21768;-56
2021/11/17 06:46:06;;;;;;;22.27;12.10;;;;;;;-2.74;72.96;100837.13;1773327;78;20902;-57
2021/11/17 06:48:34;;;;;;;21.33;11.50;;;;;;;-2.67;73.00;100834.66;1779762;78;21081;-57
2021/11/17 06:51:00;;;;;;;23.10;12.83;;;;;;;-2.59;73.05;100840.52;1772800;78;21096;-57
2021/11/17 06:53:27;;;;;;;19.77;11.20;;;;;;;-2.53;73.04;100842.84;1771555;78;21076;-58
2021/11/17 06:55:54;;;;;;;27.00;11.80;;;;;;;-2.47;73.09;100842.11;1775561;78;21788;-57
2021/11/17 06:58:20;;;;;;;22.30;10.73;;;;;;;-2.40;73.07;100842.70;1776693;78;22339;-57
2021/11/17 07:00:49;;;;;;;19.27;11.00;;;;;;;-2.35;73.08;100841.92;1774668;78;21618;-57
2021/11/17 07:03:15;;;;;;;16.83;9.87;;;;;;;-2.27;73.11;100843.40;1778051;80;21194;-56
2021/11/17 07:05:41;;;;;;;20.50;11.60;;;;;;;-2.19;73.17;100840.91;1777213;78;21348;-57
2021/11/17 07:08:08;;;;;;;21.53;9.90;;;;;;;-2.10;73.21;100845.95;1771373;78;21012;-57
2021/11/17 07:10:35;;;;;;;20.80;10.23;;;;;;;-2.01;73.11;100846.13;1750869;80;21105;-57
2021/11/17 07:13:02;;;;;;;18.87;10.10;;;;;;;-1.93;73.13;100844.95;1776731;78;21033;-57
2021/11/17 07:15:29;;;;;;;21.10;10.10;;;;;;;-1.84;73.12;100847.78;1771691;80;21107;-56
2021/11/17 07:17:56;;;;;;;17.90;9.20;;;;;;;-1.74;73.08;100839.17;1774860;78;21038;-57
2021/11/17 07:20:22;;;;;;;18.60;10.27;;;;;;;-1.65;72.94;100835.81;1771431;78;21827;-57
2021/11/17 07:22:49;;;;;;;17.73;10.50;;;;;;;-1.57;72.90;100841.69;1761928;78;21113;-57
2021/11/17 07:25:18;;;;;;;16.47;8.00;;;;;;;-1.49;72.87;100837.86;1774398;78;21045;-57
2021/11/17 07:27:47;;;;;;;18.00;10.33;;;;;;;-1.40;72.81;100838.02;1774883;78;20918;-57
2021/11/17 07:30:20;;;;;;;22.87;10.57;;;;;;;-1.31;72.60;100839.93;1772586;78;21072;-58
2021/11/17 07:32:46;;;;;;;20.83;10.50;;;;;;;-1.25;72.60;100830.34;1768704;78;21147;-58
2021/11/17 07:35:12;;;;;;;14.63;8.83;;;;;;;-1.17;72.58;100834.00;1769612;78;21065;-57
2021/11/17 07:37:39;;;;;;;18.23;9.63;;;;;;;-1.08;72.54;100829.72;1765328;78;21037;-58
2021/11/17 07:40:08;;;;;;;15.40;9.63;;;;;;;-1.01;72.45;100823.66;1768637;78;21463;-57
2021/11/17 07:42:37;;;;;;;15.57;9.17;;;;;;;-0.93;72.39;100823.34;1777825;78;21053;-58
2021/11/17 07:45:05;;;;;;;16.93;8.33;;;;;;;-0.86;72.28;100819.52;1773984;78;21108;-57
2021/11/17 07:47:32;;;;;;;17.23;10.00;;;;;;;-0.78;72.11;100818.31;1771518;78;21116;-58
2021/11/17 07:50:00;;;;;;;18.67;9.90;;;;;;;-0.69;72.13;100817.55;1773644;78;21069;-58
2021/11/17 07:52:26;;;;;;;18.27;8.37;;;;;;;-0.61;72.00;100826.05;1778323;78;21239;-58
2021/11/17 07:54:52;;;;;;;19.57;9.10;;;;;;;-0.54;71.83;100821.72;1764051;78;21088;-58
2021/11/17 07:57:19;;;;;;;15.10;8.33;;;;;;;-0.44;71.78;100822.30;1770588;78;21117;-58
2021/11/17 07:59:45;;;;;;;16.60;8.23;;;;;;;-0.36;71.50;100820.64;1772997;78;21080;-58
2021/11/17 08:02:12;;;;;;;23.67;9.57;;;;;;;-0.27;71.36;100825.16;1767602;78;21059;-58
2021/11/17 08:04:39;;;;;;;18.20;10.77;;;;;;;-0.20;71.23;100820.39;1767587;78;21463;-58
2021/11/17 08:07:10;;;;;;;19.93;11.40;;;;;;;-0.13;71.04;100826.20;1737584;80;21430;-58
2021/11/17 08:09:36;;;;;;;20.83;11.67;;;;;;;-0.05;70.84;100824.54;1741405;79;21158;-58
2021/11/17 08:12:03;;;;;;;21.60;12.23;;;;;;;0.02;70.71;100825.48;1746487;79;21038;-58
2021/11/17 08:14:30;;;;;;;18.40;10.97;;;;;;;0.10;70.54;100815.44;1748857;80;21060;-57
2021/11/17 08:16:56;;;;;;;25.53;13.30;;;;;;;0.21;70.27;100818.20;1745049;80;21061;-57
2021/11/17 08:19:22;;;;;;;22.40;13.03;;;;;;;0.28;70.15;100831.95;1748814;79;21073;-58
2021/11/17 08:21:49;;;;;;;20.23;11.77;;;;;;;0.34;69.92;100821.45;1744686;79;21173;-57
2021/11/17 08:24:16;;;;;;;17.63;9.67;;;;;;;0.40;69.71;100821.94;1742731;79;21068;-58
2021/11/17 08:26:42;;;;;;;19.20;10.03;;;;;;;0.46;69.47;100818.90;1744897;79;21414;-57
2021/11/17 08:29:09;;;;;;;27.27;10.10;;;;;;;0.51;69.38;100815.84;1745486;80;21590;-57
2021/11/17 08:31:36;;;;;;;21.00;10.80;;;;;;;0.57;69.28;100811.95;1745119;79;21444;-58
2021/11/17 08:34:03;;;;;;;22.90;9.07;;;;;;;0.64;69.08;100816.42;1744264;80;21907;-58
2021/11/17 08:36:30;;;;;;;17.20;8.43;;;;;;;0.70;68.83;100815.14;1749318;80;21067;-57
2021/11/17 08:38:57;;;;;;;30.17;9.70;;;;;;;0.74;68.63;100814.30;1742265;79;21064;-57
2021/11/17 08:41:25;;;;;;;13.20;8.13;;;;;;;0.81;68.37;100818.32;1770801;78;21108;-57
2021/11/17 08:43:52;;;;;;;16.40;8.93;;;;;;;0.86;68.14;100815.25;1746458;80;21104;-56
2021/11/17 08:46:18;;;;;;;17.53;7.73;;;;;;;0.92;67.83;100811.35;1746234;79;21194;-57
2021/11/17 08:48:45;;;;;;;22.00;12.20;;;;;;;0.97;67.63;100808.28;1744087;80;21041;-57
2021/11/17 08:51:15;;;;;;;18.97;10.70;;;;;;;1.01;67.29;100807.44;1770625;79;21273;-56
2021/11/17 08:53:44;;;;;;;14.43;9.47;;;;;;;1.05;67.18;100798.61;1768350;78;21052;-57
2021/11/17 08:56:11;;;;;;;18.87;10.23;;;;;;;1.11;66.96;100794.67;1777702;78;21471;-57
2021/11/17 08:58:39;;;;;;;17.77;9.47;;;;;;;1.17;66.65;100788.53;1773027;78;22173;-58
2021/11/17 09:01:06;;;;;;;21.17;12.50;;;;;;;1.19;66.44;100795.64;1768775;78;21080;-57
2021/11/17 09:03:33;;;;;;;14.60;10.50;;;;;;;1.22;66.25;100794.74;1768519;78;21127;-57
2021/11/17 09:06:01;;;;;;;16.23;9.10;;;;;;;1.26;65.99;100794.79;1763991;78;21121;-58
2021/11/17 09:08:28;;;;;;;34.33;22.80;;;;;;;1.30;65.74;100789.05;1772148;78;21412;-56
2021/11/17 09:10:58;;;;;;;11.57;7.80;;;;;;;1.35;65.68;100786.88;1773784;78;22287;-57
2021/11/17 09:13:27;;;;;;;12.70;6.50;;;;;;;1.39;65.42;100778.05;1749755;79;22015;-57
2021/11/17 09:15:54;;;;;;;11.57;5.97;;;;;;;1.44;65.13;100780.30;1750396;79;20937;-58
2021/11/17 09:18:23;;;;;;;10.73;5.40;;;;;;;1.49;64.65;100775.00;1751208;79;21084;-57
2021/11/17 09:20:49;;;;;;;8.53;4.53;;;;;;;1.53;64.45;100770.17;1748234;79;21385;-56
2021/11/17 09:23:16;;;;;;;10.13;5.10;;;;;;;1.55;64.06;100775.02;1748451;79;21439;-56
2021/11/17 09:25:42;;;;;;;7.80;4.10;;;;;;;1.58;63.86;100767.09;1751028;79;21776;-56
2021/11/17 09:28:09;;;;;;;10.07;5.40;;;;;;;1.62;63.69;100762.22;1752270;79;21417;-57
2021/11/17 09:30:38;;;;;;;9.47;5.13;;;;;;;1.65;63.41;100755.61;1751381;79;21456;-56
2021/11/17 09:33:08;;;;;;;9.70;4.63;;;;;;;1.70;63.34;100751.66;1751936;79;20975;-58
2021/11/17 09:35:35;;;;;;;10.40;4.67;;;;;;;1.73;63.25;100744.58;1751628;79;21735;-56
2021/11/17 09:38:03;;;;;;;7.83;4.90;;;;;;;1.78;63.11;100746.82;1752763;79;21409;-58
2021/11/17 09:40:38;;;;;;;11.43;6.33;;;;;;;1.83;62.63;100742.84;1753242;81;21044;-57
2021/11/17 09:43:04;;;;;;;8.35;3.27;;;;;;;1.86;62.38;100738.87;1750683;81;20973;-57
2021/11/17 09:45:30;;;;;;;6.87;3.97;;;;;;;1.88;61.93;100738.41;1757182;79;21013;-56
2021/11/17 09:48:00;;;;;;;13.37;8.67;;;;;;;1.90;61.41;100740.64;1750371;79;21409;-57
2021/11/17 09:50:37;;;;;;;5.93;3.00;;;;;;;1.93;61.47;100735.79;1751082;79;20937;-56
2021/11/17 09:53:09;;;;;;;8.20;3.87;;;;;;;1.97;61.31;100737.11;1752554;79;20966;-57
2021/11/17 09:55:41;;;;;;;6.63;5.27;;;;;;;1.99;60.96;100741.98;1751096;79;21128;-60
2021/11/17 09:58:15;;;;;;;6.50;3.60;;;;;;;1.99;60.65;100731.37;1747531;79;21069;-56
2021/11/17 10:03:05;;;;;;;7.83;4.90;;;;;;;2.04;60.56;100718.97;1777789;78;26445;-56
2021/11/17 10:08:39;;;;;;;6.80;4.60;;;;;;;2.04;60.30;100722.95;1696199;81;21171;-55
2021/11/17 10:13:45;;;;;;;9.13;4.60;;;;;;;2.08;59.99;100714.13;1699453;82;21538;-56
2021/11/17 10:16:12;;;;;;;7.60;4.33;;;;;;;2.08;59.93;100716.78;1694954;83;21385;-55
2021/11/17 10:18:46;;;;;;;4.43;2.97;;;;;;;2.10;59.90;100717.67;1711553;82;21381;-57
2021/11/17 10:21:29;;;;;;;8.87;5.20;;;;;;;2.13;59.72;100715.44;1709646;82;21138;-56
2021/11/17 10:24:09;;;;;;;9.43;5.57;;;;;;;2.14;59.31;100716.77;1684763;82;20907;-55
2021/11/17 10:27:02;;;;;;;7.00;4.70;;;;;;;2.16;59.25;100713.69;1708434;82;21590;-56
2021/11/17 10:29:36;;;;;;;5.53;3.87;;;;;;;2.19;59.25;100705.73;1704559;82;20929;-57
2021/11/17 10:32:08;;;;;;;9.18;5.62;;;;;;;2.24;59.12;100707.05;1690947;82;21717;-57
2021/11/17 10:34:39;;;;;;;6.50;4.77;;;;;;;2.27;58.98;100700.42;1663255;83;21432;-57
2021/11/17 10:37:29;;;;;;;7.73;5.70;;;;;;;2.28;58.92;100697.77;1662131;84;21012;-56
2021/11/17 10:39:56;;;;;;;10.80;5.57;;;;;;;2.30;58.64;100695.56;1666801;83;21062;-56
2021/11/17 10:42:31;;;;;;;12.40;5.30;;;;;;;2.32;58.51;100687.13;1670337;83;21076;-57
2021/11/17 10:45:11;;;;;;;18.77;4.97;;;;;;;2.32;58.47;100685.80;1674856;83;20961;-56
2021/11/17 10:47:45;;;;;;;10.27;4.77;;;;;;;2.34;58.10;100680.05;1668883;83;21097;-56
2021/11/17 10:50:27;;;;;;;9.93;4.60;;;;;;;2.34;57.85;100682.70;1670859;83;20899;-57
2021/11/17 10:53:01;;;;;;;15.75;5.22;;;;;;;2.34;57.59;100679.61;1674622;83;20977;-56
2021/11/17 10:55:41;;;;;;;;;;;;;;;2.34;57.63;100673.41;1674641;83;20957;-56
2021/11/17 10:58:10;;;;;;;9.50;5.67;;;;;;;2.35;57.52;100675.17;1669739;83;20335;-57
2021/11/17 11:00:42;;;;;;;16.00;5.67;;;;;;;2.34;57.32;100665.44;1672714;83;21455;-55
2021/11/17 11:03:09;;;;;;;8.13;5.30;;;;;;;2.34;57.29;100666.77;1666212;84;20979;-56
2021/11/17 11:05:52;;;;;;;9.93;5.87;;;;;;;2.34;57.36;100660.13;1660751;84;21120;-56
2021/11/17 11:08:44;;;;;;;14.43;4.70;;;;;;;2.35;57.33;100661.45;1658491;84;21614;-57
2021/11/17 11:11:10;;;;;;;16.00;5.00;;;;;;;2.36;57.17;100657.91;1672660;84;21678;-57
2021/11/17 11:13:50;;;;;;;13.10;5.77;;;;;;;2.40;56.92;100652.13;1674938;84;21601;-56
2021/11/17 11:16:51;;;;;;;6.40;4.07;;;;;;;2.40;56.73;100643.72;1668887;83;21070;-56
2021/11/17 11:19:25;;;;;;;9.70;4.87;;;;;;;2.43;56.53;100638.86;1664004;83;21128;-58
2021/11/17 11:22:00;;;;;;;6.72;4.67;;;;;;;2.46;56.33;100637.53;1673409;84;20938;-59
2021/11/17 11:24:42;;;;;;;7.67;4.13;;;;;;;2.47;56.27;100637.51;1665640;84;21600;-59
2021/11/17 11:27:13;;;;;;;8.30;4.40;;;;;;;2.49;56.11;100630.87;1665730;83;22104;-59
2021/11/17 11:29:50;;;;;;;17.00;5.87;;;;;;;2.49;56.07;100625.11;1656746;84;21115;-59
2021/11/17 11:32:27;;;;;;;5.97;3.37;;;;;;;2.50;56.05;100623.34;1698078;82;21049;-58
2021/11/17 11:35:05;;;;;;;25.50;6.40;;;;;;;2.51;55.93;100624.67;1707575;82;21136;-56
2021/11/17 11:37:39;;;;;;;8.17;4.77;;;;;;;2.51;55.58;100625.11;1704181;82;21147;-59
2021/11/17 11:40:14;;;;;;;11.37;3.87;;;;;;;2.52;55.54;100621.57;1712606;82;21120;-58
2021/11/17 11:43:05;;;;;;;;;;;;;;;2.51;55.29;100614.04;1702815;82;20921;-57
2021/11/17 11:45:36;;;;;;;7.93;4.30;;;;;;;2.51;55.30;100606.51;1700087;82;20228;-55
2021/11/17 11:48:13;;;;;;;12.17;5.10;;;;;;;2.50;55.05;100606.95;1705432;82;21037;-56
2021/11/17 11:50:48;;;;;;;9.00;5.17;;;;;;;2.51;54.95;100611.38;1705858;82;21304;-55
2021/11/17 11:53:28;;;;;;;14.57;6.37;;;;;;;2.52;54.83;100613.59;1704505;82;21107;-57
2021/11/17 11:56:01;;;;;;;12.07;6.27;;;;;;;2.51;54.67;100610.05;1703696;82;20981;-57
2021/11/17 11:58:35;;;;;;;10.00;6.07;;;;;;;2.52;54.75;100605.63;1661204;84;21655;-57
2021/11/17 12:01:22;;;;;;;9.47;5.17;;;;;;;2.54;54.69;100602.09;1701074;82;21053;-57
2021/11/17 12:04:06;;;;;;;11.07;5.40;;;;;;;2.56;54.60;100606.04;1721220;81;21492;-56
2021/11/17 12:06:49;;;;;;;11.37;5.47;;;;;;;2.56;54.52;100595.41;1713757;81;21576;-57
2021/11/17 12:09:29;;;;;;;11.63;5.97;;;;;;;2.56;54.50;100590.98;1714367;81;21065;-56
2021/11/17 12:12:00;;;;;;;14.63;6.70;;;;;;;2.57;54.61;100583.45;1716072;81;21442;-57
2021/11/17 12:14:32;;;;;;;11.37;6.50;;;;;;;2.59;54.69;100586.11;1715306;81;21070;-56
2021/11/17 12:16:59;;;;;;;12.33;6.90;;;;;;;2.57;54.57;100584.78;1719323;81;20973;-56
2021/11/17 12:19:34;;;;;;;10.63;6.10;;;;;;;2.57;54.50;100579.91;1721762;81;21090;-55
2021/11/17 12:22:06;;;;;;;9.60;6.30;;;;;;;2.55;54.21;100576.40;1719402;81;21323;-56
2021/11/17 12:24:41;;;;;;;12.43;7.37;;;;;;;2.53;54.19;100580.83;1687981;81;21125;-54
2021/11/17 12:27:18;;;;;;;9.95;5.92;;;;;;;2.53;54.19;100573.73;1715464;81;21064;-56
2021/11/17 12:30:08;;;;;;;8.27;4.47;;;;;;;2.54;54.24;100575.95;1719873;81;21096;-55
2021/11/17 12:32:54;;;;;;;14.87;6.60;;;;;;;2.53;54.11;100576.84;1716449;81;22428;-56
2021/11/17 12:35:29;;;;;;;32.03;6.90;;;;;;;2.52;54.03;100569.30;1713717;81;21366;-57
2021/11/17 12:38:01;;;;;;;11.97;4.92;;;;;;;2.52;53.99;100568.42;1716948;81;21033;-55
2021/11/17 12:40:45;;;;;;;8.20;4.87;;;;;;;2.51;53.83;100574.17;1719999;81;20903;-56
2021/11/17 12:43:16;;;;;;;8.18;5.10;;;;;;;2.49;53.88;100574.62;1720619;81;21542;-56
2021/11/17 12:45:51;;;;;;;8.90;5.20;;;;;;;2.49;53.88;100569.75;1715915;81;21769;-55
2021/11/17 12:48:26;;;;;;;;;;;;;;;2.48;53.91;100578.60;1713053;81;22162;-56
2021/11/17 12:50:56;;;;;;;;;;;;;;;2.46;54.00;100571.11;1719969;81;20466;-57
2021/11/17 12:53:44;;;;;;;14.60;5.90;;;;;;;2.44;54.03;100572.43;1682760;83;20090;-55
2021/11/17 12:56:31;;;;;;;17.40;6.33;;;;;;;2.42;54.13;100578.19;1687267;83;20992;-56
2021/11/17 12:59:18;;;;;;;15.37;6.43;;;;;;;2.42;54.13;100571.54;1643101;83;21404;-56
2021/11/17 13:01:53;;;;;;;13.30;6.13;;;;;;;2.40;54.24;100569.32;1683769;83;21126;-55
2021/11/17 13:04:25;;;;;;;;;;;;;;;2.39;54.30;100564.00;1663464;84;20917;-56
2021/11/17 13:06:57;;;;;;;10.97;6.43;;;;;;;2.38;54.37;100566.25;1660952;84;20155;-57
2021/11/17 13:09:34;;;;;;;12.37;6.67;;;;;;;2.34;54.44;100565.36;1685657;83;20922;-56
2021/11/17 13:12:09;;;;;;;15.23;6.63;;;;;;;2.31;54.50;100563.14;1682840;83;21090;-55
2021/11/17 13:14:37;;;;;;;;;;;;;;;2.30;54.57;100565.39;1690223;83;20968;-56
2021/11/17 13:17:35;;;;;;;10.60;7.00;;;;;;;2.27;54.55;100563.61;1686538;83;20536;-56
2021/11/17 13:20:19;;;;;;;16.83;8.47;;;;;;;2.23;54.53;100561.39;1687121;83;21011;-55
2021/11/17 13:23:12;;;;;;;13.67;8.43;;;;;;;2.20;54.44;100562.74;1682989;83;21080;-57
2021/11/17 13:26:13;;;;;;;13.90;8.17;;;;;;;2.17;54.47;100564.50;1682858;83;22660;-56
2021/11/17 13:28:46;;;;;;;15.90;7.77;;;;;;;2.14;54.51;100566.71;1684691;83;21076;-55
2021/11/17 13:31:34;;;;;;;11.47;6.77;;;;;;;2.08;54.46;100563.19;1671785;84;21062;-56
2021/11/17 13:34:11;;;;;;;43.23;9.23;;;;;;;2.04;54.36;100561.44;1647542;85;21083;-54
2021/11/17 13:36:43;;;;;;;16.13;7.30;;;;;;;1.98;54.29;100566.73;1666631;84;20942;-55
2021/11/17 13:39:10;;;;;;;10.80;6.40;;;;;;;1.92;54.24;100563.64;1686840;83;21131;-55
2021/11/17 13:41:37;;;;;;;11.00;6.70;;;;;;;1.88;54.29;100559.20;1652493;85;21589;-55
2021/11/17 13:44:04;;;;;;;16.40;6.57;;;;;;;1.84;54.37;100559.67;1651877;85;21350;-55
2021/11/17 13:46:32;;;;;;;15.87;6.03;;;;;;;1.79;54.39;100556.55;1644624;85;21051;-55
2021/11/17 13:48:58;;;;;;;16.30;7.50;;;;;;;1.74;54.51;100556.56;1663756;84;21436;-56
2021/11/17 13:51:27;;;;;;;12.73;6.90;;;;;;;1.72;54.62;100553.46;1661245;84;22395;-54
2021/11/17 13:53:54;;;;;;;12.07;6.73;;;;;;;1.68;54.73;100551.70;1661020;84;21051;-55
2021/11/17 13:56:31;;;;;;;13.77;6.33;;;;;;;1.65;54.83;100550.37;1664850;84;20945;-56
2021/11/17 13:58:57;;;;;;;20.70;6.83;;;;;;;1.61;54.92;100550.83;1663522;84;20977;-55
2021/11/17 14:01:24;;;;;;;15.37;7.33;;;;;;;1.58;55.06;100543.30;1664039;84;21293;-55
2021/11/17 14:03:50;;;;;;;16.20;7.40;;;;;;;1.55;55.16;100541.52;1644407;85;22787;-55
2021/11/17 14:06:18;;;;;;;28.40;8.57;;;;;;;1.50;55.25;100539.31;1694078;82;21277;-55
2021/11/17 14:08:45;;;;;;;15.03;7.30;;;;;;;1.45;55.35;100545.03;1696480;82;21117;-56
2021/11/17 14:11:11;;;;;;;17.20;7.40;;;;;;;1.39;55.47;100541.05;1698834;82;21399;-56
2021/11/17 14:13:39;;;;;;;32.90;8.03;;;;;;;1.35;55.54;100549.91;1695455;82;21101;-56
2021/11/17 14:16:06;;;;;;;17.83;7.40;;;;;;;1.29;55.69;100553.42;1695536;82;23004;-56
2021/11/17 14:18:34;;;;;;;10.73;6.30;;;;;;;1.25;55.80;100549.01;1696758;82;21022;-56
2021/11/17 14:21:02;;;;;;;12.80;6.10;;;;;;;1.21;55.89;100548.98;1692792;82;21097;-56
2021/11/17 14:23:29;;;;;;;17.07;7.97;;;;;;;1.14;56.04;100544.11;1691777;82;21078;-56
2021/11/17 14:25:55;;;;;;;13.37;6.97;;;;;;;1.09;56.07;100544.55;1699448;82;21057;-57
2021/11/17 14:28:25;;;;;;;15.17;5.13;;;;;;;1.04;56.13;100544.52;1695458;82;21488;-57
2021/11/17 14:30:59;;;;;;;16.43;5.87;;;;;;;1.01;56.16;100543.21;1695539;82;21023;-57
2021/11/17 14:33:31;;;;;;;15.05;6.47;;;;;;;0.96;56.25;100542.29;1697306;82;20987;-56
2021/11/17 14:35:56;;;;;;;16.30;6.83;;;;;;;0.89;56.39;100536.53;1697306;82;21038;-56
2021/11/17 14:38:22;;;;;;;13.20;6.70;;;;;;;0.84;56.56;100545.36;1698026;82;21039;-57
2021/11/17 14:40:50;;;;;;;11.07;6.63;;;;;;;0.75;56.66;100540.47;1692480;82;21698;-56